Storm Events Database

Event Details

Event Hail
Magnitude 3.25 in.
State TEXAS
County/Area COLLIN
WFO FWD
Begin Date 06/13/2012 19:34:00 CST-6
Begin Range 0
Begin Azimuth N
Begin Location PARKER
Begin Lat/Lon 33.05/-96.62
End Date 06/13/2012 19:34:00 CST-6
Deaths Direct/Indirect 0/0 (fatality details below, when available...)
Injuries Direct/Indirect 0/0
Property Damage 800.00K
Crop Damage 0.00K
Episode Narrative Four supercells produced a record setting hail event and one tornado across parts of North Texas. Two of the four supercells tracked through Dallas County causing over a billion dollars in hail damage. The hail in Dallas County ranged in sizes up to 3 in diameter. In many areas, the hail lasted for at least 30 minutes. Tens of thousands of cars were damaged by the hail, windows were shattered, roofs were damaged, and trees were shredded of their leaves. The Lakewood area of Dallas was one of the hardest hit areas. Part of the Lakewood Theater was damaged, and thousands of divots damaged the golf course at the Lakewood Country Club. Historic homes on Swiss Avenue sustained significant roof damage with roof repairs on a few homes estimated over $100,000. A glass exhibit at the Dallas Arboretum sustained damage that was described as relatively minor. This supercell continued to track into Ellis County producing hail damage down to Midlothian. The second supercell in Dallas County tracked from Irving into Cedar Hill. Another supercell produced an EF-0 tornado, 70-95 mph downburst winds, and softball sized hail in Fannin County. The fourth supercell produced hail up to 3.25 in diameter in Collin County. Damage estimates were estimated as high as $2 billion dollars for this event, but insurance companies anticipated the final damage totals to be around $1.1 billion. One head injury was reported when the hail broke through the sunroof of a car.
Event Narrative Hail stones ranging from 2 to 3.25 were reported in Parker.


All events for this episode:

Location County/Zone St. Date Time T.Z. Type Mag Dth Inj PrD CrD
Totals: 0 4 1.124B 5.00K
SHEPTON COLLIN CO. TX 06/13/2012 16:45 CST-6 Hail 1.75 in. 0 0 80.00K 0.00K
RENNER DALLAS CO. TX 06/13/2012 16:52 CST-6 Hail 0.88 in. 0 0 0.00K 0.00K
(ADS)ADDISON ARPT DA DALLAS CO. TX 06/13/2012 16:52 CST-6 Hail 2.00 in. 0 0 75.00K 0.00K
SHEPTON COLLIN CO. TX 06/13/2012 16:52 CST-6 Hail 2.00 in. 0 0 75.00K 0.00K
BOUCHARD DALLAS CO. TX 06/13/2012 17:08 CST-6 Hail 1.00 in. 0 0 10.00K 0.00K
BOUCHARD DALLAS CO. TX 06/13/2012 17:12 CST-6 Hail 1.50 in. 0 0 120.00K 0.00K
BOUCHARD DALLAS CO. TX 06/13/2012 17:14 CST-6 Hail 1.00 in. 0 0 50.00K 0.00K
RICHARDSON DALLAS CO. TX 06/13/2012 17:15 CST-6 Hail 1.00 in. 0 0 10.00K 0.00K
CURTIS DALLAS CO. TX 06/13/2012 17:20 CST-6 Hail 2.00 in. 0 0 90.00K 0.00K
HIGHLAND PARK DALLAS CO. TX 06/13/2012 17:20 CST-6 Hail 2.75 in. 0 0 900.000M 0.00K
BOUCHARD DALLAS CO. TX 06/13/2012 17:22 CST-6 Hail 2.50 in. 0 0 900.00K 0.00K
UNIVERSITY PARK DALLAS CO. TX 06/13/2012 17:23 CST-6 Hail 1.75 in. 0 0 1.200M 0.00K
REINHARDT DALLAS CO. TX 06/13/2012 17:23 CST-6 Hail 1.50 in. 0 0 60.00K 0.00K
UNIVERSITY PARK DALLAS CO. TX 06/13/2012 17:23 CST-6 Hail 2.75 in. 0 0 3.000M 0.00K
HIGHLAND PARK DALLAS CO. TX 06/13/2012 17:24 CST-6 Hail 1.00 in. 0 0 0.00K 0.00K
HIGHLAND PARK DALLAS CO. TX 06/13/2012 17:35 CST-6 Hail 1.50 in. 0 0 200.000M 0.00K
GRAPEVINE TARRANT CO. TX 06/13/2012 17:36 CST-6 Hail 1.25 in. 0 0 80.00K 0.00K
EAST DALLAS DALLAS CO. TX 06/13/2012 17:45 CST-6 Hail 1.75 in. 0 0 400.00K 0.00K
EAST DALLAS DALLAS CO. TX 06/13/2012 17:45 CST-6 Hail 1.75 in. 0 0 100.00K 0.00K
SAYENE DALLAS CO. TX 06/13/2012 17:51 CST-6 Hail 1.75 in. 0 1 1.000M 0.00K
SOWERS DALLAS CO. TX 06/13/2012 17:58 CST-6 Hail 1.50 in. 0 0 2.500M 0.00K
LIGGETT DALLAS CO. TX 06/13/2012 17:58 CST-6 Hail 2.75 in. 0 0 2.000M 0.00K
PEELER DALLAS CO. TX 06/13/2012 18:05 CST-6 Hail 2.50 in. 0 0 1.400M 0.00K
SHADY GROVE DALLAS CO. TX 06/13/2012 18:05 CST-6 Hail 1.50 in. 0 0 1.000M 0.00K
SOWERS DALLAS CO. TX 06/13/2012 18:07 CST-6 Hail 2.00 in. 0 0 200.00K 0.00K
SOWERS DALLAS CO. TX 06/13/2012 18:16 CST-6 Hail 2.50 in. 0 0 1.000M 0.00K
GRAND PRAIRIE DALLAS CO. TX 06/13/2012 18:20 CST-6 Hail 3.00 in. 0 0 120.00K 0.00K
GRAND PRAIRIE DALLAS CO. TX 06/13/2012 18:20 CST-6 Hail 1.75 in. 0 0 600.00K 0.00K
GRAND PRAIRIE ARPT DALLAS CO. TX 06/13/2012 18:40 CST-6 Hail 2.75 in. 0 0 500.00K 0.00K
FLORENCE HILL DALLAS CO. TX 06/13/2012 18:40 CST-6 Hail 3.00 in. 0 0 800.00K 0.00K
LAKELAND HGTS DALLAS CO. TX 06/13/2012 18:47 CST-6 Hail 3.00 in. 0 0 800.00K 0.00K
GRAND PRAIRIE DALLAS CO. TX 06/13/2012 18:47 CST-6 Hail 1.75 in. 0 0 300.00K 0.00K
FLORENCE HILL DALLAS CO. TX 06/13/2012 18:48 CST-6 Hail 2.75 in. 0 0 1.20K 0.00K
RANDOLPH FANNIN CO. TX 06/13/2012 18:50 CST-6 Thunderstorm Wind 83 kts. EG 0 3 600.00K 0.00K
FLORENCE HILL DALLAS CO. TX 06/13/2012 18:53 CST-6 Hail 1.75 in. 0 0 1.200M 0.00K
RANDOLPH FANNIN CO. TX 06/13/2012 18:55 CST-6 Tornado EF0 0 0 50.00K 5.00K
DUNCANVILLE DALLAS CO. TX 06/13/2012 19:01 CST-6 Hail 2.00 in. 0 0 1.200M 0.00K
MCKINNEY COLLIN CO. TX 06/13/2012 19:03 CST-6 Hail 1.00 in. 0 0 60.00K 0.00K
LEONARD FANNIN CO. TX 06/13/2012 19:19 CST-6 Hail 4.25 in. 0 0 1.000M 0.00K
PARKER COLLIN CO. TX 06/13/2012 19:34 CST-6 Hail 3.25 in. 0 0 800.00K 0.00K
MIDLOTHIAN ELLIS CO. TX 06/13/2012 19:38 CST-6 Hail 2.75 in. 0 0 300.00K 0.00K
MIDLOTHIAN ELLIS CO. TX 06/13/2012 19:38 CST-6 Hail 1.25 in. 0 0 100.00K 0.00K
MIDLOTHIAN ELLIS CO. TX 06/13/2012 19:42 CST-6 Hail 1.50 in. 0 0 0.00K 0.00K
MIDLOTHIAN ELLIS CO. TX 06/13/2012 19:42 CST-6 Hail 1.75 in. 0 0 160.00K 0.00K
CELESTE HUNT CO. TX 06/13/2012 19:52 CST-6 Hail 1.75 in. 0 0 25.00K 0.00K
LONE ELM ELLIS CO. TX 06/13/2012 19:57 CST-6 Hail 1.50 in. 0 0 300.00K 0.00K
Totals: 0 4 1.124B 5.00K